Government of Jersey

Home Log in

Channel Islands Terminal Aerodrome Forecasts (TAFs)

Jersey Airport - EGJJ

EGJJ 101057Z 1012/1021 06013KT CAVOK TEMPO 1012/1021 05015G25KT=

Guernsey Airport - EGJB

EGJB 101057Z 1012/1021 05012KT CAVOK PROB40 TEMPO 1013/1021 05015G25KT=

Alderney Airport - EGJA

EGJA 101057Z 1012/1021 06015KT 9999 FEW006 PROB30 TEMPO 1015/1021 06015G25KT=